Terminal Aerodrome Forecast
Issued by NWS

Home | Current Version | Previous Version | Text Only | Print | Product List | Glossary On
Versions: 1 2 3 4 5 6 7 8 9 10 11 12 13 14 15
000
FTAK31 PANC 182011 AAA
TAFAGK
TAF AMD
PAGK 182011Z 1820/1918 16015G22KT P6SM SCT060 OVC100
     FM190600 15007KT P6SM SCT100 BKN150
     FM191200 VRB03KT P6SM SKC=

USA.gov is the U.S. government's official web portal to all federal, state and local government web resources and services.